createdAt,value
2022-09-20T00:00:42.897Z,89.25
2022-09-20T00:01:42.895Z,89.31
2022-09-20T00:02:42.773Z,89.31
2022-09-20T00:03:42.753Z,89.31
2022-09-20T00:04:42.798Z,89.31
2022-09-20T00:05:42.773Z,89.35
2022-09-20T00:06:42.719Z,89.20
2022-09-20T00:07:42.714Z,89.04
2022-09-20T00:08:42.707Z,89.20
2022-09-20T00:09:42.690Z,88.79
2022-09-20T00:10:42.724Z,89.45
2022-09-20T00:11:42.676Z,89.41
2022-09-20T00:12:42.662Z,89.20
2022-09-20T00:13:42.657Z,89.61
2022-09-20T00:14:42.640Z,89.41
2022-09-20T00:15:42.653Z,89.11
2022-09-20T00:16:42.694Z,89.31
2022-09-20T00:17:42.617Z,89.35
2022-09-20T00:18:42.608Z,89.04
2022-09-20T00:19:42.593Z,89.15
2022-09-20T00:20:42.573Z,89.15
2022-09-20T00:21:42.572Z,89.35
2022-09-20T00:22:42.578Z,89.31
2022-09-20T00:23:42.545Z,89.20
2022-09-20T00:24:46.783Z,89.41
2022-09-20T00:25:43.526Z,89.11
2022-09-20T00:26:42.523Z,89.11
2022-09-20T00:27:42.511Z,89.00
2022-09-20T00:28:42.494Z,88.70
2022-09-20T00:29:42.484Z,89.61
2022-09-20T00:30:42.474Z,89.20
2022-09-20T00:31:42.522Z,89.04
2022-09-20T00:32:42.492Z,89.15
2022-09-20T00:33:42.441Z,89.00
2022-09-20T00:34:42.419Z,89.04
2022-09-20T00:35:42.409Z,88.90
2022-09-20T00:36:42.399Z,88.59
2022-09-20T00:37:42.386Z,89.65
2022-09-20T00:38:42.395Z,89.11
2022-09-20T00:39:42.384Z,89.00
2022-09-20T00:40:42.508Z,88.84
2022-09-20T00:41:42.341Z,89.15
2022-09-20T00:42:42.366Z,89.15
2022-09-20T00:43:42.335Z,88.84
2022-09-20T00:44:42.326Z,88.84
2022-09-20T00:45:42.379Z,89.04
2022-09-20T00:46:42.294Z,88.84
2022-09-20T00:47:42.287Z,89.35
2022-09-20T00:48:42.270Z,89.56
2022-09-20T00:49:42.273Z,89.25
2022-09-20T00:50:42.254Z,88.94
2022-09-20T00:51:42.241Z,89.15
2022-09-20T00:52:42.229Z,89.15
2022-09-20T00:53:42.221Z,88.64
2022-09-20T00:54:42.225Z,89.04
2022-09-20T00:55:42.192Z,89.35
2022-09-20T00:56:42.192Z,89.35
2022-09-20T00:57:42.167Z,89.25
2022-09-20T00:58:42.188Z,89.15
2022-09-20T00:59:42.177Z,89.35
2022-09-20T01:00:42.211Z,89.20
2022-09-20T01:01:42.212Z,88.74
2022-09-20T01:02:42.212Z,89.25
2022-09-20T01:03:42.122Z,89.56
2022-09-20T01:04:42.109Z,89.25
2022-09-20T01:05:42.108Z,89.15
2022-09-20T01:06:42.074Z,89.45
2022-09-20T01:07:42.061Z,89.56
2022-09-20T01:08:42.057Z,89.65
2022-09-20T01:09:42.065Z,89.11
2022-09-20T01:10:42.030Z,89.56
2022-09-20T01:11:42.018Z,89.65
2022-09-20T01:12:42.206Z,88.90
2022-09-20T01:13:42.002Z,88.94
2022-09-20T01:14:42.023Z,89.15
2022-09-20T01:15:41.976Z,88.53
2022-09-20T01:16:42.024Z,88.74
2022-09-20T01:17:41.965Z,89.04
2022-09-20T01:18:41.943Z,88.74
2022-09-20T01:19:41.943Z,88.94
2022-09-20T01:20:41.929Z,88.84
2022-09-20T01:21:41.929Z,88.94
2022-09-20T01:22:41.910Z,89.04
2022-09-20T01:23:41.897Z,88.94
2022-09-20T01:24:41.888Z,88.84
2022-09-20T01:25:41.871Z,88.84
2022-09-20T01:26:41.879Z,88.94
2022-09-20T01:27:41.873Z,88.84
2022-09-20T01:28:41.847Z,88.84
2022-09-20T01:29:41.828Z,88.64
2022-09-20T01:30:41.840Z,88.74
2022-09-20T01:31:41.849Z,88.64
2022-09-20T01:32:41.797Z,89.25
2022-09-20T01:33:41.789Z,89.04
2022-09-20T01:34:41.780Z,89.15
2022-09-20T01:35:41.778Z,89.04
2022-09-20T01:36:41.751Z,89.25
2022-09-20T01:37:41.748Z,88.84
2022-09-20T01:38:41.742Z,88.64
2022-09-20T01:39:41.729Z,89.56
2022-09-20T01:40:41.760Z,89.56
2022-09-20T01:41:41.704Z,88.43
2022-09-20T01:42:41.685Z,89.15
2022-09-20T01:43:41.674Z,88.74
2022-09-20T01:44:41.685Z,89.04
2022-09-20T01:45:41.706Z,88.88
2022-09-20T01:46:41.669Z,88.88
2022-09-20T01:47:41.644Z,88.98
2022-09-20T01:48:41.626Z,88.98
2022-09-20T01:49:41.615Z,88.78
2022-09-20T01:50:41.622Z,88.98
2022-09-20T01:51:41.607Z,89.18
2022-09-20T01:52:41.605Z,88.78
2022-09-20T01:53:41.571Z,88.98
2022-09-20T01:54:41.571Z,88.68
2022-09-20T01:55:41.542Z,88.88
2022-09-20T01:56:41.556Z,89.39
2022-09-20T01:57:41.531Z,89.50
2022-09-20T01:58:41.510Z,89.18
2022-09-20T01:59:41.512Z,89.39
2022-09-20T02:00:41.498Z,89.39
2022-09-20T02:01:41.489Z,89.43
2022-09-20T02:02:41.555Z,89.33
2022-09-20T02:03:41.477Z,89.43
2022-09-20T02:04:41.474Z,89.50
2022-09-20T02:05:41.440Z,89.29
2022-09-20T02:06:41.432Z,89.59
2022-09-20T02:07:41.416Z,89.29
2022-09-20T02:08:41.418Z,89.39
2022-09-20T02:09:41.393Z,89.50
2022-09-20T02:10:41.395Z,89.90
2022-09-20T02:11:41.377Z,89.18
2022-09-20T02:12:41.371Z,89.29
2022-09-20T02:13:41.375Z,89.29
2022-09-20T02:14:41.349Z,89.09
2022-09-20T02:15:41.327Z,89.29
2022-09-20T02:16:41.421Z,89.39
2022-09-20T02:17:41.316Z,89.29
2022-09-20T02:18:41.315Z,89.18
2022-09-20T02:19:41.303Z,89.29
2022-09-20T02:20:41.279Z,89.39
2022-09-20T02:21:41.289Z,89.39
2022-09-20T02:22:41.256Z,89.90
2022-09-20T02:23:41.253Z,89.39
2022-09-20T02:24:41.240Z,88.88
2022-09-20T02:25:41.223Z,89.29
2022-09-20T02:26:41.212Z,89.09
2022-09-20T02:27:41.221Z,89.09
2022-09-20T02:28:41.187Z,89.50
2022-09-20T02:29:41.180Z,89.35
2022-09-20T02:30:41.179Z,89.45
2022-09-20T02:31:41.235Z,89.39
2022-09-20T02:32:41.153Z,89.50
2022-09-20T02:33:41.138Z,89.59
2022-09-20T02:34:41.151Z,89.50
2022-09-20T02:35:41.134Z,88.98
2022-09-20T02:36:41.099Z,89.09
2022-09-20T02:37:41.094Z,88.98
2022-09-20T02:38:41.081Z,89.18
2022-09-20T02:39:41.076Z,89.50
2022-09-20T02:40:41.178Z,89.39
2022-09-20T02:41:41.052Z,89.18
2022-09-20T02:42:41.038Z,89.39
2022-09-20T02:43:41.032Z,89.39
2022-09-20T02:44:41.013Z,89.09
2022-09-20T02:45:41.056Z,89.29
2022-09-20T02:46:41.006Z,89.29
2022-09-20T02:47:40.992Z,89.29
2022-09-20T02:48:40.979Z,89.29
2022-09-20T02:49:40.973Z,89.50
2022-09-20T02:50:40.966Z,89.09
2022-09-20T02:51:40.974Z,88.98
2022-09-20T02:52:40.934Z,89.65
2022-09-20T02:53:40.916Z,89.45
2022-09-20T02:54:40.908Z,89.50
2022-09-20T02:55:40.898Z,89.39
2022-09-20T02:56:40.894Z,89.29
2022-09-20T02:57:40.901Z,89.25
2022-09-20T02:58:40.871Z,89.50
2022-09-20T02:59:40.852Z,89.39
2022-09-20T03:00:40.931Z,89.25
2022-09-20T03:01:40.930Z,89.50
2022-09-20T03:02:40.943Z,89.39
2022-09-20T03:03:40.820Z,89.25
2022-09-20T03:04:40.824Z,89.70
2022-09-20T03:05:40.796Z,89.86
2022-09-20T03:06:40.810Z,89.25
2022-09-20T03:07:40.793Z,89.04
2022-09-20T03:08:40.783Z,89.97
2022-09-20T03:09:40.750Z,88.74
2022-09-20T03:10:40.749Z,89.35
2022-09-20T03:11:40.730Z,89.65
2022-09-20T03:12:40.714Z,89.18
2022-09-20T03:13:40.713Z,89.25
2022-09-20T03:14:40.723Z,89.97
2022-09-20T03:15:40.689Z,89.25
2022-09-20T03:16:40.746Z,89.35
2022-09-20T03:17:40.660Z,89.04
2022-09-20T03:18:40.647Z,89.25
2022-09-20T03:19:40.641Z,89.25
2022-09-20T03:20:40.648Z,89.00
2022-09-20T03:21:40.617Z,89.35
2022-09-20T03:22:40.637Z,89.92
2022-09-20T03:23:40.594Z,89.61
2022-09-20T03:24:40.593Z,89.11
2022-09-20T03:25:40.590Z,88.90
2022-09-20T03:26:40.585Z,89.45
2022-09-20T03:27:40.556Z,89.31
2022-09-20T03:28:40.546Z,89.31
2022-09-20T03:29:40.536Z,89.20
2022-09-20T03:30:40.526Z,88.79
2022-09-20T03:31:40.601Z,88.84
2022-09-20T03:32:40.496Z,89.00
2022-09-20T03:33:40.492Z,88.94
2022-09-20T03:34:40.483Z,89.15
2022-09-20T03:35:40.489Z,88.94
2022-09-20T03:36:40.459Z,89.15
2022-09-20T03:37:40.450Z,89.11
2022-09-20T03:38:40.457Z,89.25
2022-09-20T03:39:40.427Z,89.56
2022-09-20T03:40:45.587Z,89.35
2022-09-20T03:41:40.403Z,89.35
2022-09-20T03:42:40.396Z,89.25
2022-09-20T03:43:40.412Z,89.45
2022-09-20T03:44:40.376Z,89.35
2022-09-20T03:45:40.419Z,89.20
2022-09-20T03:46:40.346Z,89.15
2022-09-20T03:47:40.338Z,89.35
2022-09-20T03:48:40.330Z,89.04
2022-09-20T03:49:40.325Z,89.15
2022-09-20T03:50:40.307Z,89.15
2022-09-20T03:51:40.305Z,89.25
2022-09-20T03:52:40.290Z,89.45
2022-09-20T03:53:40.281Z,89.04
2022-09-20T03:54:40.288Z,89.04
2022-09-20T03:55:40.262Z,89.35
2022-09-20T03:56:40.270Z,89.97
2022-09-20T03:57:40.233Z,90.06
2022-09-20T03:58:40.224Z,89.76
2022-09-20T03:59:40.215Z,89.86
2022-09-20T04:00:40.205Z,89.86
2022-09-20T04:01:40.244Z,90.12
2022-09-20T04:02:40.273Z,89.72
2022-09-20T04:03:40.165Z,89.92
2022-09-20T04:04:50.553Z,89.86
2022-09-20T04:05:40.143Z,90.37
2022-09-20T04:06:40.181Z,89.86
2022-09-20T04:07:40.226Z,89.82
2022-09-20T04:08:40.519Z,89.82
2022-09-20T04:09:40.109Z,90.33
2022-09-20T04:10:40.112Z,89.72
2022-09-20T04:11:40.086Z,89.61
2022-09-20T04:12:40.071Z,89.41
2022-09-20T04:13:40.074Z,89.41
2022-09-20T04:14:40.045Z,89.25
2022-09-20T04:15:40.058Z,89.15
2022-09-20T04:16:40.237Z,90.27
2022-09-20T04:17:40.020Z,89.45
2022-09-20T04:18:40.002Z,89.82
2022-09-20T04:19:40.014Z,89.97
2022-09-20T04:20:39.981Z,89.86
2022-09-20T04:21:39.969Z,89.86
2022-09-20T04:22:39.973Z,89.61
2022-09-20T04:23:39.948Z,90.23
2022-09-20T04:24:39.956Z,89.82
2022-09-20T04:25:43.732Z,90.12
2022-09-20T04:26:39.940Z,90.33
2022-09-20T04:27:39.912Z,90.02
2022-09-20T04:28:39.891Z,90.23
2022-09-20T04:29:39.933Z,90.33
2022-09-20T04:30:39.911Z,89.72
2022-09-20T04:31:39.935Z,89.92
2022-09-20T04:32:39.859Z,90.23
2022-09-20T04:33:39.852Z,90.33
2022-09-20T04:34:39.837Z,90.27
2022-09-20T04:35:39.840Z,90.02
2022-09-20T04:36:39.816Z,90.17
2022-09-20T04:37:39.797Z,90.33
2022-09-20T04:38:39.789Z,89.82
2022-09-20T04:39:39.785Z,89.76
2022-09-20T04:40:39.823Z,90.17
2022-09-20T04:41:39.761Z,90.02
2022-09-20T04:42:39.765Z,90.68
2022-09-20T04:43:39.732Z,90.37
2022-09-20T04:44:39.732Z,89.92
2022-09-20T04:45:39.788Z,89.92
2022-09-20T04:46:39.720Z,90.23
2022-09-20T04:47:39.695Z,90.27
2022-09-20T04:48:39.677Z,90.43
2022-09-20T04:49:39.673Z,90.74
2022-09-20T04:50:39.655Z,90.33
2022-09-20T04:51:39.656Z,90.53
2022-09-20T04:52:39.638Z,90.23
2022-09-20T04:53:39.627Z,89.72
2022-09-20T04:54:39.629Z,90.33
2022-09-20T04:55:39.661Z,89.82
2022-09-20T04:56:39.825Z,90.02
2022-09-20T04:57:39.605Z,90.12
2022-09-20T04:58:39.594Z,89.92
2022-09-20T04:59:39.563Z,89.92
2022-09-20T05:00:39.574Z,89.82
2022-09-20T05:01:39.609Z,89.92
2022-09-20T05:02:39.623Z,89.00
2022-09-20T05:03:39.520Z,89.41
2022-09-20T05:04:39.514Z,89.72
2022-09-20T05:05:39.503Z,89.82
2022-09-20T05:06:39.492Z,89.82
2022-09-20T05:07:39.482Z,89.82
2022-09-20T05:08:39.469Z,89.92
2022-09-20T05:09:39.458Z,89.82
2022-09-20T05:10:39.442Z,89.51
2022-09-20T05:11:39.433Z,89.61
2022-09-20T05:12:39.445Z,88.90
2022-09-20T05:13:39.409Z,89.51
2022-09-20T05:14:39.446Z,89.20
2022-09-20T05:15:39.392Z,89.31
2022-09-20T05:16:41.969Z,89.20
2022-09-20T05:17:39.378Z,89.41
2022-09-20T05:18:39.367Z,89.20
2022-09-20T05:19:39.350Z,89.41
2022-09-20T05:20:39.357Z,89.20
2022-09-20T05:21:39.322Z,89.41
2022-09-20T05:22:39.425Z,89.00
2022-09-20T05:23:39.598Z,89.20
2022-09-20T05:24:39.295Z,89.31
2022-09-20T05:25:39.283Z,89.51
2022-09-20T05:26:39.282Z,88.70
2022-09-20T05:27:39.255Z,89.06
2022-09-20T05:28:39.266Z,89.11
2022-09-20T05:29:39.244Z,89.26
2022-09-20T05:30:39.247Z,89.17
2022-09-20T05:31:39.311Z,89.06
2022-09-20T05:32:39.206Z,89.06
2022-09-20T05:33:39.227Z,88.85
2022-09-20T05:34:39.202Z,88.65
2022-09-20T05:35:39.183Z,88.35
2022-09-20T05:36:39.170Z,88.85
2022-09-20T05:37:39.171Z,88.65
2022-09-20T05:38:39.147Z,88.96
2022-09-20T05:39:39.144Z,89.37
2022-09-20T05:40:39.188Z,89.06
2022-09-20T05:41:39.106Z,89.23
2022-09-20T05:42:39.107Z,89.32
2022-09-20T05:43:39.088Z,88.82
2022-09-20T05:44:39.089Z,88.92
2022-09-20T05:45:39.112Z,88.41
2022-09-20T05:46:39.070Z,88.24
2022-09-20T05:47:39.061Z,87.38
2022-09-20T05:48:39.029Z,88.35
2022-09-20T05:49:39.034Z,87.73
2022-09-20T05:50:39.012Z,88.55
2022-09-20T05:51:39.006Z,88.20
2022-09-20T05:52:38.997Z,88.71
2022-09-20T05:53:38.995Z,88.61
2022-09-20T05:54:38.979Z,87.59
2022-09-20T05:55:38.996Z,87.59
2022-09-20T05:56:38.960Z,87.79
2022-09-20T05:57:38.945Z,87.49
2022-09-20T05:58:38.923Z,87.18
2022-09-20T05:59:38.921Z,87.38
2022-09-20T06:00:38.909Z,86.98
2022-09-20T06:01:38.911Z,87.59
2022-09-20T06:02:38.959Z,88.31
2022-09-20T06:03:38.891Z,87.70
2022-09-20T06:04:38.863Z,88.41
2022-09-20T06:05:38.870Z,87.59
2022-09-20T06:06:38.878Z,87.59
2022-09-20T06:07:38.883Z,86.98
2022-09-20T06:08:38.954Z,87.85
2022-09-20T06:09:38.814Z,87.38
2022-09-20T06:10:38.803Z,87.70
2022-09-20T06:11:38.815Z,87.45
2022-09-20T06:12:38.788Z,87.55
2022-09-20T06:13:38.774Z,87.04
2022-09-20T06:14:38.761Z,86.69
2022-09-20T06:15:38.751Z,86.69
2022-09-20T06:16:39.624Z,86.90
2022-09-20T06:17:38.742Z,86.63
2022-09-20T06:18:38.726Z,86.59
2022-09-20T06:19:38.698Z,86.69
2022-09-20T06:20:38.697Z,86.69
2022-09-20T06:21:38.685Z,86.80
2022-09-20T06:22:38.739Z,86.80
2022-09-20T06:23:38.653Z,86.59
2022-09-20T06:24:38.651Z,86.80
2022-09-20T06:25:38.633Z,86.69
2022-09-20T06:26:38.637Z,87.06
2022-09-20T06:27:38.619Z,86.65
2022-09-20T06:28:38.613Z,86.65
2022-09-20T06:29:38.599Z,86.35
2022-09-20T06:30:38.626Z,86.15
2022-09-20T06:31:38.568Z,86.71
2022-09-20T06:32:38.566Z,86.21
2022-09-20T06:33:38.546Z,85.08
2022-09-20T06:34:38.553Z,84.67
2022-09-20T06:35:38.550Z,85.39
2022-09-20T06:36:38.538Z,85.05
2022-09-20T06:37:38.513Z,84.84
2022-09-20T06:38:38.501Z,84.64
2022-09-20T06:39:38.646Z,84.84
2022-09-20T06:40:38.526Z,84.64
2022-09-20T06:41:38.460Z,84.70
2022-09-20T06:42:38.477Z,83.98
2022-09-20T06:43:38.461Z,83.58
2022-09-20T06:44:38.432Z,83.78
2022-09-20T06:45:38.568Z,83.48
2022-09-20T06:46:38.464Z,82.93
2022-09-20T06:47:38.966Z,82.52
2022-09-20T06:48:38.382Z,81.81
2022-09-20T06:49:38.464Z,81.91
2022-09-20T06:50:38.387Z,81.40
2022-09-20T06:51:38.372Z,82.01
2022-09-20T06:52:38.350Z,81.60
2022-09-20T06:53:38.334Z,81.44
2022-09-20T06:54:38.318Z,81.24
2022-09-20T06:55:38.305Z,81.74
2022-09-20T06:56:38.314Z,81.95
2022-09-20T06:57:38.292Z,81.95
2022-09-20T06:58:38.289Z,82.46
2022-09-20T06:59:38.261Z,82.56
2022-09-20T07:00:38.247Z,82.90
2022-09-20T07:01:38.355Z,81.99
2022-09-20T07:02:38.337Z,82.60
2022-09-20T07:03:38.228Z,82.60
2022-09-20T07:04:38.215Z,83.11
2022-09-20T07:05:38.205Z,82.60
2022-09-20T07:06:38.206Z,83.11
2022-09-20T07:07:38.206Z,83.72
2022-09-20T07:08:38.165Z,83.21
2022-09-20T07:09:38.157Z,83.01
2022-09-20T07:10:38.152Z,83.21
2022-09-20T07:11:38.140Z,82.64
2022-09-20T07:12:38.121Z,82.40
2022-09-20T07:13:38.125Z,83.15
2022-09-20T07:14:38.114Z,83.35
2022-09-20T07:15:38.099Z,82.94
2022-09-20T07:16:38.114Z,83.86
2022-09-20T07:17:38.065Z,83.56
2022-09-20T07:18:38.072Z,83.76
2022-09-20T07:19:38.044Z,83.82
2022-09-20T07:20:38.041Z,83.04
2022-09-20T07:21:38.041Z,83.04
2022-09-20T07:22:38.057Z,82.94
2022-09-20T07:23:38.007Z,83.56
2022-09-20T07:24:37.996Z,83.86
2022-09-20T07:25:37.982Z,83.92
2022-09-20T07:26:37.969Z,82.64
2022-09-20T07:27:37.965Z,83.04
2022-09-20T07:28:37.967Z,83.56
2022-09-20T07:29:37.944Z,83.76
2022-09-20T07:30:37.937Z,83.56
2022-09-20T07:31:37.944Z,83.96
2022-09-20T07:32:37.921Z,83.86
2022-09-20T07:33:37.924Z,83.86
2022-09-20T07:34:37.889Z,83.96
2022-09-20T07:35:37.890Z,83.86
2022-09-20T07:36:37.880Z,84.12
2022-09-20T07:37:37.862Z,83.65
2022-09-20T07:38:37.878Z,84.03
2022-09-20T07:39:37.827Z,83.92
2022-09-20T07:40:37.860Z,83.82
2022-09-20T07:41:37.812Z,85.05
2022-09-20T07:42:37.808Z,84.90
2022-09-20T07:43:37.791Z,83.48
2022-09-20T07:44:37.835Z,82.76
2022-09-20T07:45:37.806Z,82.82
2022-09-20T07:46:37.767Z,82.82
2022-09-20T07:47:37.748Z,83.34
2022-09-20T07:48:37.751Z,83.20
2022-09-20T07:49:37.727Z,83.29
2022-09-20T07:50:37.721Z,83.40
2022-09-20T07:51:37.710Z,82.68
2022-09-20T07:52:37.708Z,81.46
2022-09-20T07:53:37.676Z,81.46
2022-09-20T07:54:37.689Z,81.33
2022-09-20T07:55:37.670Z,80.45
2022-09-20T07:56:37.650Z,81.37
2022-09-20T07:57:37.643Z,80.85
2022-09-20T07:58:37.645Z,81.26
2022-09-20T07:59:37.621Z,81.67
2022-09-20T08:00:37.603Z,82.38
2022-09-20T08:01:37.606Z,82.34
2022-09-20T08:02:37.647Z,82.54
2022-09-20T08:03:37.573Z,81.53
2022-09-20T08:04:37.573Z,81.59
2022-09-20T08:05:37.562Z,81.09
2022-09-20T08:06:37.533Z,81.49
2022-09-20T08:07:37.545Z,81.35
2022-09-20T08:08:37.516Z,81.25
2022-09-20T08:09:37.521Z,80.10
2022-09-20T08:10:37.531Z,79.59
2022-09-20T08:11:37.508Z,79.59
2022-09-20T08:14:38.479Z,79.65
2022-09-20T08:15:37.455Z,78.74
2022-09-20T08:16:37.522Z,78.40
2022-09-20T08:17:37.420Z,78.09
2022-09-20T08:18:37.413Z,77.89
2022-09-20T08:19:37.395Z,77.14
2022-09-20T08:20:37.409Z,77.25
2022-09-20T08:21:37.374Z,75.93
2022-09-20T08:22:37.375Z,75.73
2022-09-20T08:23:37.368Z,76.94
2022-09-20T08:24:37.354Z,76.54
2022-09-20T08:25:37.338Z,76.80
2022-09-20T08:26:37.359Z,76.80
2022-09-20T08:27:37.317Z,76.80
2022-09-20T08:28:37.294Z,76.56
2022-09-20T08:29:37.286Z,75.15
2022-09-20T08:30:37.278Z,75.35
2022-09-20T08:31:37.392Z,75.35
2022-09-20T08:32:37.277Z,75.31
2022-09-20T08:33:37.248Z,74.71
2022-09-20T08:34:37.250Z,74.20
2022-09-20T08:35:38.519Z,74.51
2022-09-20T08:36:37.422Z,74.67
2022-09-20T08:37:37.213Z,74.23
2022-09-20T08:40:38.333Z,72.68
2022-09-20T08:41:37.161Z,72.08
2022-09-20T08:42:43.643Z,72.64
2022-09-20T08:43:38.661Z,71.84
2022-09-20T08:44:37.136Z,71.23
2022-09-20T08:45:37.121Z,71.00
2022-09-20T08:46:37.174Z,70.26
2022-09-20T08:47:37.117Z,70.12
2022-09-20T08:48:37.102Z,69.48
2022-09-20T08:49:37.070Z,68.77
2022-09-20T08:50:37.065Z,68.71
2022-09-20T08:51:37.073Z,68.18
2022-09-20T08:52:37.354Z,66.87
2022-09-20T08:53:37.037Z,64.07
2022-09-20T08:54:37.017Z,61.78
2022-09-20T08:55:37.289Z,56.94
2022-09-20T08:56:37.010Z,56.61
2022-09-20T08:57:37.004Z,52.57
2022-09-20T08:58:36.991Z,49.93
2022-09-20T08:59:36.973Z,47.68
2022-09-20T09:00:36.965Z,46.82
2022-09-20T09:01:36.940Z,44.83
2022-09-20T09:02:37.016Z,42.97
2022-09-20T09:03:36.939Z,40.82
2022-09-20T09:04:36.917Z,39.68
2022-09-20T09:05:36.899Z,39.50
2022-09-20T09:06:36.893Z,39.37
2022-09-20T09:07:36.888Z,37.94
2022-09-20T09:08:38.129Z,37.61
2022-09-20T09:09:37.716Z,36.40
2022-09-20T09:10:42.686Z,36.32
2022-09-20T09:11:37.862Z,37.19
2022-09-20T09:12:36.829Z,39.31
2022-09-20T09:13:36.834Z,40.31
2022-09-20T09:14:36.831Z,40.80
2022-09-20T09:15:36.810Z,39.40
2022-09-20T09:16:36.860Z,39.17
2022-09-20T09:17:36.775Z,38.72
2022-09-20T09:18:36.781Z,39.37
2022-09-20T09:19:36.770Z,39.13
2022-09-20T09:20:36.757Z,37.80
2022-09-20T09:21:36.746Z,37.09
2022-09-20T09:22:36.738Z,39.15
2022-09-20T09:23:36.718Z,40.13
2022-09-20T09:24:36.717Z,41.43
2022-09-20T09:25:36.699Z,41.24
2022-09-20T09:26:36.702Z,40.66
2022-09-20T09:27:36.678Z,39.70
2022-09-20T09:28:36.679Z,37.38
2022-09-20T09:29:36.659Z,37.48
2022-09-20T09:30:36.685Z,35.66
2022-09-20T09:31:36.694Z,35.69
2022-09-20T09:32:36.625Z,35.86
2022-09-20T09:33:36.618Z,37.62
2022-09-20T09:34:36.633Z,40.00
2022-09-20T09:35:36.606Z,41.12
2022-09-20T09:36:36.594Z,41.57
2022-09-20T09:37:36.578Z,42.82
2022-09-20T09:38:36.571Z,43.10
2022-09-20T09:39:36.562Z,41.22
2022-09-20T09:40:36.651Z,40.37
2022-09-20T09:41:36.564Z,40.64
2022-09-20T09:42:36.535Z,39.62
2022-09-20T09:43:36.527Z,40.69
2022-09-20T09:44:36.513Z,41.06
2022-09-20T09:45:36.572Z,42.98
2022-09-20T09:46:36.504Z,43.43
2022-09-20T09:47:36.496Z,42.74
2022-09-20T09:48:37.988Z,42.46
2022-09-20T09:49:36.684Z,40.76
2022-09-20T09:50:36.461Z,37.85
2022-09-20T09:51:36.457Z,39.89
2022-09-20T09:52:36.434Z,40.05
2022-09-20T09:53:36.427Z,38.62
2022-09-20T09:54:36.413Z,38.05
2022-09-20T09:55:36.394Z,39.37
2022-09-20T09:56:36.406Z,38.44
2022-09-20T09:57:36.402Z,39.11
2022-09-20T09:58:36.378Z,39.34
2022-09-20T09:59:36.369Z,40.03
2022-09-20T10:00:36.366Z,41.71
2022-09-20T10:01:36.445Z,43.48
2022-09-20T10:02:36.445Z,45.54
2022-09-20T10:03:36.342Z,46.88
2022-09-20T10:04:36.314Z,47.97
2022-09-20T10:05:46.718Z,47.92
2022-09-20T10:06:36.288Z,48.36
2022-09-20T10:07:36.295Z,49.60
2022-09-20T10:08:36.314Z,50.62
2022-09-20T10:09:36.312Z,52.00
2022-09-20T10:10:36.286Z,52.99
2022-09-20T10:11:36.244Z,54.42
2022-09-20T10:12:36.227Z,54.92
2022-09-20T10:13:40.454Z,55.12
2022-09-20T10:14:36.209Z,55.15
2022-09-20T10:15:36.251Z,55.05
2022-09-20T10:16:36.201Z,55.77
2022-09-20T10:17:36.180Z,56.37
2022-09-20T10:18:36.191Z,56.98
2022-09-20T10:19:36.158Z,55.37
2022-09-20T10:20:36.154Z,55.98
2022-09-20T10:21:36.212Z,56.67
2022-09-20T10:22:36.148Z,55.07
2022-09-20T10:24:01.568Z,55.77
2022-09-20T10:24:37.119Z,56.77
2022-09-20T10:25:36.101Z,55.00
2022-09-20T10:26:36.113Z,56.10
2022-09-20T10:27:36.095Z,56.90
2022-09-20T10:28:36.132Z,56.37
2022-09-20T10:29:36.066Z,56.87
2022-09-20T10:30:36.166Z,56.55
2022-09-20T10:31:36.083Z,56.48
2022-09-20T10:32:36.058Z,56.77
2022-09-20T10:33:36.021Z,56.57
2022-09-20T10:34:36.035Z,56.77
2022-09-20T10:35:36.106Z,57.13
2022-09-20T10:36:35.990Z,57.56
2022-09-20T10:37:35.986Z,58.92
2022-09-20T10:38:35.972Z,59.01
2022-09-20T10:39:35.973Z,59.45
2022-09-20T10:40:36.089Z,59.22
2022-09-20T10:41:35.955Z,58.92
2022-09-20T10:42:35.948Z,58.79
2022-09-20T10:43:35.924Z,57.89
2022-09-20T10:44:35.919Z,58.18
2022-09-20T10:46:08.309Z,58.89
2022-09-20T10:46:36.943Z,58.36
2022-09-20T10:47:35.926Z,58.06
2022-09-20T10:48:35.861Z,59.46
2022-09-20T10:49:35.844Z,57.76
2022-09-20T10:50:36.753Z,57.39
2022-09-20T10:51:35.832Z,58.94
2022-09-20T10:52:35.845Z,60.11
2022-09-20T10:53:35.803Z,62.02
2022-09-20T10:54:35.796Z,61.71
2022-09-20T10:55:35.797Z,62.05
2022-09-20T10:56:35.783Z,61.57
2022-09-20T10:57:35.774Z,62.51
2022-09-20T10:58:35.761Z,63.07
2022-09-20T10:59:35.740Z,64.21
2022-09-20T11:00:35.747Z,64.44
2022-09-20T11:01:35.811Z,64.75
2022-09-20T11:02:35.775Z,65.68
2022-09-20T11:03:35.709Z,66.46
2022-09-20T11:04:35.690Z,65.78
2022-09-20T11:05:35.689Z,65.71
2022-09-20T11:06:35.688Z,66.32
2022-09-20T11:07:35.664Z,66.35
2022-09-20T11:08:35.645Z,67.56
2022-09-20T11:09:35.649Z,67.46
2022-09-20T11:10:35.662Z,66.65
2022-09-20T11:11:35.615Z,67.26
2022-09-20T11:12:35.601Z,67.09
2022-09-20T11:13:35.593Z,67.86
2022-09-20T11:14:35.593Z,67.36
2022-09-20T11:15:35.584Z,67.80
2022-09-20T11:16:35.637Z,67.26
2022-09-20T11:17:35.551Z,67.80
2022-09-20T11:18:35.535Z,68.67
2022-09-20T11:19:35.531Z,69.38
2022-09-20T11:20:35.541Z,69.98
2022-09-20T11:21:35.560Z,71.40
2022-09-20T11:22:35.514Z,72.71
2022-09-20T11:23:35.510Z,73.02
2022-09-20T11:24:35.470Z,72.00
2022-09-20T11:25:35.460Z,72.55
2022-09-20T11:26:35.487Z,72.85
2022-09-20T11:27:35.470Z,73.05
2022-09-20T11:28:35.445Z,73.66
2022-09-20T11:29:35.428Z,73.28
2022-09-20T11:30:35.412Z,73.19
2022-09-20T11:31:35.443Z,73.28
2022-09-20T11:32:35.398Z,72.21
2022-09-20T11:33:39.317Z,72.95
2022-09-20T11:34:36.386Z,73.19
2022-09-20T11:35:35.384Z,73.80
2022-09-20T11:36:35.346Z,73.43
2022-09-20T11:37:35.328Z,73.93
2022-09-20T11:38:35.339Z,74.77
2022-09-20T11:39:35.319Z,74.27
2022-09-20T11:40:35.373Z,73.29
2022-09-20T11:41:35.314Z,71.67
2022-09-20T11:42:35.272Z,73.22
2022-09-20T11:43:35.281Z,71.73
2022-09-20T11:44:35.264Z,73.16
2022-09-20T11:45:35.334Z,73.87
2022-09-20T11:46:35.293Z,74.38
2022-09-20T11:47:53.965Z,75.70
2022-09-20T11:48:36.237Z,77.42
2022-09-20T11:49:35.209Z,77.48
2022-09-20T11:50:35.199Z,77.79
2022-09-20T11:51:35.182Z,76.37
2022-09-20T11:52:35.172Z,75.96
2022-09-20T11:53:36.994Z,75.96
2022-09-20T11:54:35.178Z,76.67
2022-09-20T11:55:35.177Z,76.87
2022-09-20T11:56:35.125Z,77.72
2022-09-20T11:57:35.117Z,78.50
2022-09-20T11:58:35.109Z,77.38
2022-09-20T11:59:35.114Z,76.87
2022-09-20T12:00:35.130Z,77.34
2022-09-20T12:01:35.069Z,77.04
2022-09-20T12:02:35.260Z,77.01
2022-09-20T12:03:35.113Z,76.77
2022-09-20T12:04:35.574Z,77.28
2022-09-20T12:05:35.058Z,76.83
2022-09-20T12:06:35.031Z,76.70
2022-09-20T12:07:35.029Z,76.35
2022-09-20T12:08:34.991Z,76.86
2022-09-20T12:09:34.996Z,76.72
2022-09-20T12:10:35.009Z,77.33
2022-09-20T12:11:34.961Z,76.22
2022-09-20T12:12:34.959Z,76.82
2022-09-20T12:13:34.985Z,76.32
2022-09-20T12:14:34.938Z,76.42
2022-09-20T12:15:34.949Z,76.12
2022-09-20T12:16:34.977Z,76.93
2022-09-20T12:17:34.925Z,76.93
2022-09-20T12:18:34.881Z,75.71
2022-09-20T12:19:34.928Z,75.41
2022-09-20T12:20:34.887Z,75.71
2022-09-20T12:21:34.888Z,76.28
2022-09-20T12:22:34.859Z,76.48
2022-09-20T12:23:34.851Z,76.69
2022-09-20T12:24:34.823Z,77.50
2022-09-20T12:25:34.837Z,75.84
2022-09-20T12:26:34.852Z,75.54
2022-09-20T12:27:34.800Z,73.42
2022-09-20T12:28:34.838Z,73.32
2022-09-20T12:29:34.788Z,74.16
2022-09-20T12:30:34.761Z,74.77
2022-09-20T12:31:34.827Z,74.37
2022-09-20T12:32:34.763Z,75.48
2022-09-20T12:33:34.734Z,75.71
2022-09-20T12:34:34.716Z,75.61
2022-09-20T12:35:34.779Z,76.82
2022-09-20T12:36:34.696Z,77.47
2022-09-20T12:37:34.695Z,77.84
2022-09-20T12:38:34.703Z,76.56
2022-09-20T12:39:34.673Z,76.86
2022-09-20T12:40:34.710Z,77.17
2022-09-20T12:41:34.628Z,77.26
2022-09-20T12:42:34.650Z,78.78
2022-09-20T12:43:34.616Z,76.72
2022-09-20T12:44:34.601Z,75.61
2022-09-20T12:45:34.633Z,75.41
2022-09-20T12:46:34.608Z,74.70
2022-09-20T12:47:34.599Z,74.87
2022-09-20T12:48:34.597Z,74.97
2022-09-20T12:49:34.558Z,74.46
2022-09-20T12:50:34.548Z,73.62
2022-09-20T12:51:34.536Z,72.55
2022-09-20T12:52:34.523Z,74.66
2022-09-20T12:53:34.502Z,74.46
2022-09-20T12:54:34.517Z,76.59
2022-09-20T12:55:34.506Z,73.46
2022-09-20T12:56:34.471Z,72.88